Time;durP1;ratioP1;P1;durP2;ratioP2;P2;SDS_P1;SDS_P2;PMS_P1;PMS_P2;Temp;Humidity;BMP_temperature;BMP_pressure;BME280_temperature;BME280_humidity;BME280_pressure;Samples;Min_cycle;Max_cycle;Signal;HPM_P1;HPM_P2
2023/11/16 00:02:02;;;;;;;10.80;4.50;;;8.10;99.90;;;;;;5127687;28;20300;-50
2023/11/16 00:04:28;;;;;;;11.90;4.82;;;8.00;99.90;;;;;;5127408;28;20015;-50
2023/11/16 00:06:54;;;;;;;9.80;4.05;;;8.00;99.90;;;;;;5127477;28;20045;-46
2023/11/16 00:09:20;;;;;;;8.75;4.32;;;8.00;99.90;;;;;;5127682;28;20035;-47
2023/11/16 00:11:46;;;;;;;13.05;4.10;;;7.90;99.90;;;;;;5127692;28;20043;-48
2023/11/16 00:14:12;;;;;;;9.63;3.53;;;7.90;99.90;;;;;;5109759;28;20023;-48
2023/11/16 00:16:37;;;;;;;7.63;3.75;;;7.80;99.90;;;;;;5126492;28;20032;-48
2023/11/16 00:19:06;;;;;;;12.93;4.22;;;7.90;99.90;;;;;;5126570;28;20024;-48
2023/11/16 00:21:32;;;;;;;9.40;3.67;;;7.90;99.90;;;;;;5127429;28;20031;-50
2023/11/16 00:23:58;;;;;;;9.65;4.32;;;7.80;99.90;;;;;;5127376;28;20050;-46
2023/11/16 00:26:24;;;;;;;9.90;3.60;;;7.80;99.90;;;;;;5127321;28;20189;-50
2023/11/16 00:28:54;;;;;;;11.00;4.25;;;7.70;99.90;;;;;;5127438;28;20277;-50
2023/11/16 00:31:20;;;;;;;10.95;4.10;;;7.70;99.90;;;;;;5127451;28;20173;-50
2023/11/16 00:33:46;;;;;;;9.98;3.75;;;7.70;99.90;;;;;;5126060;28;20023;-50
2023/11/16 00:36:12;;;;;;;8.35;4.72;;;7.70;99.90;;;;;;5125933;28;20031;-50
2023/11/16 00:38:38;;;;;;;10.30;4.53;;;7.70;99.90;;;;;;5126261;28;20030;-51
2023/11/16 00:41:08;;;;;;;12.60;3.97;;;7.50;99.90;;;;;;5126130;28;20015;-50
2023/11/16 00:43:39;;;;;;;12.90;4.65;;;7.50;99.90;;;;;;5126104;28;20204;-51
2023/11/16 00:46:05;;;;;;;16.33;4.28;;;7.60;99.90;;;;;;5126986;28;20047;-50
2023/11/16 00:48:34;;;;;;;10.63;4.13;;;7.60;99.90;;;;;;5108913;28;20073;-50
2023/11/16 00:50:59;;;;;;;11.02;3.90;;;7.60;99.90;;;;;;5126941;28;20024;-50
2023/11/16 00:53:25;;;;;;;13.35;3.97;;;7.60;99.90;;;;;;5126639;28;20027;-50
2023/11/16 00:55:51;;;;;;;16.23;4.13;;;7.70;99.90;;;;;;5126795;28;20028;-50
2023/11/16 00:58:20;;;;;;;12.13;4.28;;;7.70;99.90;;;;;;5126741;28;20031;-50
2023/11/16 01:00:52;;;;;;;15.15;3.97;;;7.70;99.90;;;;;;5125859;28;20030;-49
2023/11/16 01:03:18;;;;;;;12.77;4.13;;;7.60;99.90;;;;;;5126930;28;20064;-48
2023/11/16 01:05:44;;;;;;;12.05;3.80;;;7.60;99.90;;;;;;5126565;28;20028;-48
2023/11/16 01:08:10;;;;;;;10.10;3.35;;;7.50;99.90;;;;;;5126109;28;20075;-48
2023/11/16 01:10:43;;;;;;;9.98;3.97;;;7.50;99.90;;;;;;5124803;28;20055;-50
2023/11/16 01:13:10;;;;;;;8.52;3.85;;;7.50;99.90;;;;;;5126691;28;20181;-48
2023/11/16 01:15:38;;;;;;;15.68;4.53;;;7.50;99.90;;;;;;5125736;28;20058;-50
2023/11/16 01:18:12;;;;;;;13.57;4.40;;;7.50;99.90;;;;;;5126595;28;20261;-49
2023/11/16 01:20:41;;;;;;;9.65;3.53;;;7.50;99.90;;;;;;5126537;28;20028;-50
2023/11/16 01:23:12;;;;;;;11.38;3.20;;;7.50;99.90;;;;;;5125992;28;20305;-50
2023/11/16 01:25:41;;;;;;;8.77;3.35;;;7.40;99.90;;;;;;5126540;28;20277;-49
2023/11/16 01:28:10;;;;;;;7.13;2.63;;;7.30;99.90;;;;;;5126451;28;20110;-49
2023/11/16 01:30:36;;;;;;;11.88;3.22;;;7.30;99.90;;;;;;5126339;28;20036;-49
2023/11/16 01:33:07;;;;;;;11.38;2.97;;;7.20;99.90;;;;;;5125155;28;20192;-49
2023/11/16 01:35:42;;;;;;;9.90;3.38;;;7.30;99.90;;;;;;5126424;28;20300;-49
2023/11/16 01:38:08;;;;;;;12.48;3.65;;;7.20;99.90;;;;;;5126017;28;20293;-49
2023/11/16 01:40:34;;;;;;;10.35;3.35;;;7.30;99.90;;;;;;5125768;28;20039;-49
2023/11/16 01:43:00;;;;;;;9.13;2.90;;;7.20;99.90;;;;;;5126239;28;20273;-50
2023/11/16 01:45:27;;;;;;;11.77;2.85;;;7.20;99.90;;;;;;5125529;28;20113;-50
2023/11/16 01:47:53;;;;;;;10.40;3.50;;;7.20;99.90;;;;;;5125965;28;20046;-50
2023/11/16 01:50:18;;;;;;;11.38;3.88;;;7.20;99.90;;;;;;5126175;28;20173;-49
2023/11/16 01:52:44;;;;;;;9.95;3.60;;;7.20;99.90;;;;;;5126142;28;20077;-49
2023/11/16 01:55:10;;;;;;;7.57;2.67;;;7.20;99.90;;;;;;5126106;28;20062;-48
2023/11/16 01:57:35;;;;;;;8.23;2.97;;;7.20;99.90;;;;;;5125790;28;20051;-46
2023/11/16 02:00:04;;;;;;;9.45;3.38;;;7.20;99.90;;;;;;5125887;28;20031;-46
2023/11/16 02:02:30;;;;;;;8.35;2.72;;;7.10;99.90;;;;;;5125069;28;20090;-46
2023/11/16 02:04:56;;;;;;;10.43;2.63;;;7.00;99.90;;;;;;5125036;28;20020;-46
2023/11/16 02:07:21;;;;;;;9.13;2.35;;;7.00;99.90;;;;;;5125519;28;20313;-46
2023/11/16 02:09:49;;;;;;;7.03;2.60;;;6.90;99.90;;;;;;5125742;28;20055;-46
2023/11/16 02:12:14;;;;;;;7.35;2.70;;;6.90;99.90;;;;;;5125491;28;20038;-46
2023/11/16 02:14:40;;;;;;;9.57;2.53;;;6.90;99.90;;;;;;5124927;28;20027;-46
2023/11/16 02:17:06;;;;;;;11.80;3.25;;;6.90;99.90;;;;;;5125913;28;20036;-53
2023/11/16 02:19:32;;;;;;;11.57;3.38;;;6.90;99.90;;;;;;5125604;28;20112;-51
2023/11/16 02:21:58;;;;;;;7.97;3.13;;;6.90;99.90;;;;;;5126446;28;20103;-53
2023/11/16 02:24:24;;;;;;;9.30;3.10;;;6.90;99.90;;;;;;5129699;28;20027;-53
2023/11/16 02:26:51;;;;;;;8.98;3.08;;;6.90;99.90;;;;;;5129751;28;20034;-52
2023/11/16 02:29:17;;;;;;;8.70;3.15;;;6.90;99.90;;;;;;5129203;28;20250;-51
2023/11/16 02:31:43;;;;;;;5.80;2.55;;;6.90;99.90;;;;;;5128384;28;20035;-53
2023/11/16 02:34:08;;;;;;;6.70;2.65;;;6.90;99.90;;;;;;5129706;28;20090;-52
2023/11/16 02:36:34;;;;;;;8.18;2.42;;;6.80;99.90;;;;;;5129560;28;20051;-53
2023/11/16 02:39:01;;;;;;;7.90;2.60;;;6.80;99.90;;;;;;5129486;28;20070;-54
2023/11/16 02:41:29;;;;;;;10.68;3.38;;;6.70;99.90;;;;;;5129374;28;20023;-53
2023/11/16 02:43:54;;;;;;;8.55;3.08;;;6.70;99.90;;;;;;5128995;28;20020;-52
2023/11/16 02:46:20;;;;;;;8.60;3.00;;;6.70;99.90;;;;;;5129226;28;20103;-53
2023/11/16 02:48:46;;;;;;;10.40;2.50;;;6.70;99.90;;;;;;5129361;28;20035;-50
2023/11/16 02:51:14;;;;;;;7.45;2.88;;;6.70;99.90;;;;;;5129372;28;20050;-50
2023/11/16 02:53:41;;;;;;;7.78;3.03;;;6.70;99.90;;;;;;5129312;28;20035;-53
2023/11/16 02:56:08;;;;;;;7.78;2.85;;;6.80;99.90;;;;;;5128890;28;20030;-52
2023/11/16 02:58:34;;;;;;;9.43;3.72;;;6.80;99.90;;;;;;5129377;27;20059;-53
2023/11/16 03:01:02;;;;;;;8.60;3.15;;;6.70;99.90;;;;;;5128523;28;20028;-52
2023/11/16 03:03:28;;;;;;;7.72;2.88;;;6.70;99.90;;;;;;5128717;28;20030;-53
2023/11/16 03:05:54;;;;;;;5.25;2.45;;;6.70;99.90;;;;;;5128298;28;20020;-52
2023/11/16 03:08:19;;;;;;;6.22;2.00;;;6.70;99.90;;;;;;5110869;28;20063;-51
2023/11/16 03:10:47;;;;;;;9.63;2.40;;;6.60;99.90;;;;;;5128895;28;20034;-52
2023/11/16 03:13:16;;;;;;;7.65;2.20;;;6.60;99.90;;;;;;5127885;28;20035;-53
2023/11/16 03:15:42;;;;;;;7.07;2.70;;;6.70;99.90;;;;;;5128549;28;20037;-53
2023/11/16 03:18:08;;;;;;;10.48;3.20;;;6.60;99.90;;;;;;5128551;28;20015;-52
2023/11/16 03:20:34;;;;;;;11.60;3.20;;;6.60;99.90;;;;;;5128754;28;20037;-52
2023/11/16 03:23:01;;;;;;;7.95;3.05;;;6.70;99.90;;;;;;5128645;28;20023;-53
2023/11/16 03:25:26;;;;;;;8.60;2.88;;;6.70;99.90;;;;;;5128778;28;20073;-53
2023/11/16 03:27:52;;;;;;;9.52;3.17;;;6.70;99.90;;;;;;5128628;28;20023;-53
2023/11/16 03:30:18;;;;;;;7.85;2.80;;;6.70;99.90;;;;;;5128529;28;20039;-52
2023/11/16 03:32:45;;;;;;;7.65;2.88;;;6.80;99.90;;;;;;5127512;28;20034;-53
2023/11/16 03:35:13;;;;;;;7.05;2.80;;;6.80;99.90;;;;;;5127148;28;20032;-53
2023/11/16 03:37:41;;;;;;;7.57;2.42;;;6.70;99.90;;;;;;5128256;28;20023;-53
2023/11/16 03:40:08;;;;;;;9.45;2.70;;;6.70;99.90;;;;;;5110279;28;20024;-53
2023/11/16 03:42:34;;;;;;;8.02;2.85;;;6.70;99.90;;;;;;5128308;28;20026;-53
2023/11/16 03:45:00;;;;;;;11.48;3.00;;;6.80;99.90;;;;;;5128258;28;20285;-53
2023/11/16 03:47:25;;;;;;;8.27;3.72;;;6.80;99.90;;;;;;5127772;28;20070;-53
2023/11/16 03:49:54;;;;;;;8.68;2.80;;;6.70;99.90;;;;;;5064727;22;20064;-76
2023/11/16 03:52:20;;;;;;;8.40;2.73;;;6.80;99.90;;;;;;5046061;28;20202;-76
2023/11/16 03:54:46;;;;;;;9.20;2.95;;;6.70;99.90;;;;;;5046971;28;20084;-76
2023/11/16 03:57:12;;;;;;;10.65;2.80;;;6.70;99.90;;;;;;5046919;28;20045;-76
2023/11/16 03:59:41;;;;;;;6.90;2.60;;;6.80;99.90;;;;;;5046140;28;20041;-76
2023/11/16 04:02:08;;;;;;;6.68;2.30;;;6.70;99.90;;;;;;5046076;28;20028;-76
2023/11/16 04:04:34;;;;;;;8.40;2.67;;;6.80;99.90;;;;;;5045972;28;20021;-76
2023/11/16 04:07:02;;;;;;;8.80;2.58;;;6.80;99.90;;;;;;5029329;28;20037;-76
2023/11/16 04:09:30;;;;;;;7.28;2.63;;;6.70;99.90;;;;;;5046388;28;20017;-76
2023/11/16 04:11:57;;;;;;;8.80;2.58;;;6.70;99.90;;;;;;5045897;28;20039;-76
2023/11/16 04:14:22;;;;;;;9.55;2.40;;;6.80;99.90;;;;;;5046341;28;20090;-77
2023/11/16 04:16:52;;;;;;;8.98;2.60;;;6.70;99.90;;;;;;5046451;28;20056;-76
2023/11/16 04:19:21;;;;;;;7.45;2.38;;;6.70;99.90;;;;;;5046631;28;20119;-76
2023/11/16 04:21:47;;;;;;;6.43;2.20;;;6.70;99.90;;;;;;5046697;28;20036;-76
2023/11/16 04:24:13;;;;;;;8.75;2.65;;;6.70;99.90;;;;;;5045493;28;20283;-76
2023/11/16 04:26:39;;;;;;;8.02;3.00;;;6.70;99.90;;;;;;5045326;28;20175;-76
2023/11/16 04:29:07;;;;;;;7.88;2.78;;;6.70;99.90;;;;;;5046373;28;20071;-76
2023/11/16 04:31:39;;;;;;;10.02;2.60;;;6.80;99.90;;;;;;5046273;28;20096;-76
2023/11/16 04:34:07;;;;;;;6.80;2.30;;;6.70;99.90;;;;;;5045475;28;20309;-76
2023/11/16 04:36:33;;;;;;;7.97;2.60;;;6.70;99.90;;;;;;5045212;28;20034;-76
2023/11/16 04:38:59;;;;;;;7.70;2.50;;;6.70;99.90;;;;;;5028668;28;20282;-76
2023/11/16 04:41:26;;;;;;;7.78;2.53;;;6.70;99.90;;;;;;5045300;28;20351;-76
2023/11/16 04:43:52;;;;;;;7.93;2.80;;;6.70;99.90;;;;;;5044562;28;20202;-76
2023/11/16 04:46:18;;;;;;;5.45;2.47;;;6.70;99.90;;;;;;5045030;28;20029;-76
2023/11/16 04:48:44;;;;;;;6.63;2.47;;;6.70;99.90;;;;;;5028440;28;20167;-76
2023/11/16 04:51:12;;;;;;;7.05;2.35;;;6.70;99.90;;;;;;5045048;28;20143;-76
2023/11/16 04:53:39;;;;;;;5.72;2.60;;;6.70;99.90;;;;;;5045155;28;20088;-76
2023/11/16 04:56:06;;;;;;;8.70;3.05;;;6.70;99.90;;;;;;5046245;28;20073;-76
2023/11/16 04:58:32;;;;;;;7.72;2.60;;;6.70;99.90;;;;;;5045790;28;20033;-76
2023/11/16 05:00:58;;;;;;;7.07;2.30;;;6.70;99.90;;;;;;5045478;28;20068;-76
2023/11/16 05:03:24;;;;;;;8.00;2.75;;;6.70;99.90;;;;;;5044884;28;20080;-76
2023/11/16 05:05:50;;;;;;;6.35;2.50;;;6.70;99.90;;;;;;5045857;28;20282;-77
2023/11/16 05:08:16;;;;;;;6.72;2.55;;;6.70;99.90;;;;;;5045829;28;20049;-77
2023/11/16 05:10:42;;;;;;;11.80;5.57;;;6.70;99.90;;;;;;5045508;28;20258;-77
2023/11/16 05:13:08;;;;;;;8.75;2.65;;;6.70;99.90;;;;;;5044641;28;20048;-77
2023/11/16 05:15:33;;;;;;;7.43;2.30;;;6.80;99.90;;;;;;5044646;28;20025;-76
2023/11/16 05:17:59;;;;;;;6.72;2.40;;;6.70;99.90;;;;;;5044488;28;20106;-76
2023/11/16 05:20:25;;;;;;;10.07;2.70;;;6.70;99.90;;;;;;5045361;28;20309;-76
2023/11/16 05:22:51;;;;;;;9.23;2.42;;;6.70;99.90;;;;;;5044548;28;20052;-76
2023/11/16 05:25:16;;;;;;;7.95;2.92;;;6.70;99.90;;;;;;5044458;28;20021;-76
2023/11/16 05:27:42;;;;;;;7.25;2.28;;;6.70;99.90;;;;;;5044581;28;20360;-76
2023/11/16 05:30:08;;;;;;;4.45;2.20;;;6.70;99.90;;;;;;5045571;28;20029;-77
2023/11/16 05:32:34;;;;;;;9.35;3.10;;;6.70;99.90;;;;;;5044448;28;20044;-76
2023/11/16 05:35:00;;;;;;;7.80;2.30;;;6.70;99.90;;;;;;5045287;28;20178;-77
2023/11/16 05:37:25;;;;;;;6.03;2.05;;;6.70;99.90;;;;;;5044399;28;20185;-76
2023/11/16 05:39:51;;;;;;;8.40;2.40;;;6.70;99.90;;;;;;5044323;28;20194;-76
2023/11/16 05:42:17;;;;;;;5.68;2.35;;;6.70;99.90;;;;;;5044481;28;20033;-77
2023/11/16 05:44:44;;;;;;;6.97;2.47;;;6.70;99.90;;;;;;5045249;28;20308;-76
2023/11/16 05:47:11;;;;;;;10.93;3.53;;;6.70;99.90;;;;;;5044416;28;20038;-76
2023/11/16 05:49:37;;;;;;;6.65;2.60;;;6.70;99.90;;;;;;5027889;28;20077;-76
2023/11/16 05:52:04;;;;;;;5.00;2.55;;;6.70;99.90;;;;;;5044313;28;20029;-76
2023/11/16 05:54:29;;;;;;;6.70;2.72;;;6.70;99.90;;;;;;5044202;28;20033;-76
2023/11/16 05:56:55;;;;;;;7.47;2.25;;;6.70;99.90;;;;;;5045851;28;20041;-76
2023/11/16 05:59:21;;;;;;;5.72;2.40;;;6.70;99.90;;;;;;5048383;28;20037;-77
2023/11/16 06:01:47;;;;;;;6.65;2.30;;;6.70;99.90;;;;;;5031675;28;20033;-77
2023/11/16 06:04:12;;;;;;;9.07;2.03;;;6.70;99.90;;;;;;5048278;28;20045;-76
2023/11/16 06:06:38;;;;;;;6.32;2.60;;;6.70;99.90;;;;;;5048905;28;20079;-76
2023/11/16 06:09:04;;;;;;;7.63;2.60;;;6.70;99.90;;;;;;5048123;28;20038;-77
2023/11/16 06:11:30;;;;;;;9.65;2.90;;;6.70;99.90;;;;;;5047906;28;20091;-76
2023/11/16 06:13:56;;;;;;;6.57;2.38;;;6.70;99.90;;;;;;5048061;28;20028;-76
2023/11/16 06:16:23;;;;;;;8.45;2.30;;;6.60;99.90;;;;;;5047793;28;20025;-76
2023/11/16 06:18:49;;;;;;;5.28;2.50;;;6.70;99.90;;;;;;5047811;28;20026;-76
2023/11/16 06:21:15;;;;;;;7.05;2.67;;;6.70;99.90;;;;;;5047884;28;20278;-76
2023/11/16 06:23:41;;;;;;;9.85;2.53;;;6.70;99.90;;;;;;5048919;28;20036;-77
2023/11/16 06:26:07;;;;;;;8.95;2.28;;;6.70;99.90;;;;;;5047776;28;20037;-77
2023/11/16 06:28:32;;;;;;;7.75;2.40;;;6.70;99.90;;;;;;5048503;28;20087;-77
2023/11/16 06:30:58;;;;;;;6.43;2.50;;;6.70;99.90;;;;;;5047621;28;20190;-77
2023/11/16 06:33:23;;;;;;;9.38;2.70;;;6.70;99.90;;;;;;5048595;28;20034;-76
2023/11/16 06:35:49;;;;;;;10.13;3.10;;;6.70;99.90;;;;;;5047701;28;20069;-76
2023/11/16 06:38:16;;;;;;;10.32;2.70;;;6.70;99.90;;;;;;5047498;28;20052;-76
2023/11/16 06:40:41;;;;;;;4.53;1.88;;;6.70;99.90;;;;;;5047521;28;20206;-76
2023/11/16 06:43:10;;;;;;;8.07;3.10;;;6.70;99.90;;;;;;5048258;28;20132;-76
2023/11/16 06:45:40;;;;;;;5.68;2.20;;;6.70;99.90;;;;;;5047547;28;20026;-77
2023/11/16 06:48:07;;;;;;;6.47;2.13;;;6.70;99.90;;;;;;5047049;28;20109;-76
2023/11/16 06:50:34;;;;;;;7.10;2.10;;;6.70;99.90;;;;;;5047150;28;20087;-77
2023/11/16 06:53:05;;;;;;;8.98;2.50;;;6.70;99.90;;;;;;5047091;28;20282;-76
2023/11/16 06:55:34;;;;;;;7.28;2.28;;;6.80;99.90;;;;;;5047185;28;20043;-77
2023/11/16 06:58:01;;;;;;;6.70;4.00;;;6.80;99.90;;;;;;5047037;28;20263;-76
2023/11/16 07:00:27;;;;;;;7.75;3.50;;;6.80;99.90;;;;;;5046958;28;20026;-77
2023/11/16 07:02:53;;;;;;;9.57;3.03;;;6.70;99.90;;;;;;5047027;28;20040;-76
2023/11/16 07:05:19;;;;;;;8.05;2.85;;;6.80;99.90;;;;;;5046867;28;20040;-77
2023/11/16 07:07:45;;;;;;;5.07;2.13;;;6.70;99.90;;;;;;5045908;28;20112;-76
2023/11/16 07:10:12;;;;;;;8.32;2.53;;;6.70;99.90;;;;;;5046883;28;20053;-76
2023/11/16 07:12:41;;;;;;;10.13;2.58;;;6.80;99.90;;;;;;5047819;28;20026;-76
2023/11/16 07:15:08;;;;;;;12.90;2.65;;;6.80;99.90;;;;;;5047716;28;20041;-76
2023/11/16 07:17:34;;;;;;;7.15;3.40;;;6.80;99.90;;;;;;5030373;28;20045;-75
2023/11/16 07:19:59;;;;;;;7.43;3.60;;;6.80;99.90;;;;;;5046445;28;20333;-75
2023/11/16 07:22:29;;;;;;;9.25;3.20;;;6.80;99.90;;;;;;5029832;28;20120;-74
2023/11/16 07:24:55;;;;;;;6.63;2.72;;;6.80;99.90;;;;;;5046571;28;20033;-75
2023/11/16 07:27:20;;;;;;;10.75;2.63;;;6.80;99.90;;;;;;5046543;28;20083;-75
2023/11/16 07:29:46;;;;;;;6.57;2.40;;;6.80;99.90;;;;;;5046679;28;20318;-75
2023/11/16 07:32:12;;;;;;;7.63;2.28;;;6.80;99.90;;;;;;5030082;28;21079;-78
2023/11/16 07:34:39;;;;;;;7.13;2.60;;;6.80;99.90;;;;;;5046406;28;20057;-75
2023/11/16 07:37:04;;;;;;;4.35;2.40;;;6.80;99.90;;;;;;5029957;28;20108;-75
2023/11/16 07:39:31;;;;;;;8.57;2.47;;;6.90;99.90;;;;;;5046302;28;20018;-75
2023/11/16 07:41:57;;;;;;;3.67;2.03;;;6.80;99.90;;;;;;5047233;28;20025;-75
2023/11/16 07:44:23;;;;;;;7.93;2.60;;;6.90;99.90;;;;;;5046735;28;20099;-75
2023/11/16 07:46:49;;;;;;;6.38;2.33;;;6.80;99.90;;;;;;5045949;28;20037;-75
2023/11/16 07:49:14;;;;;;;9.02;2.60;;;6.70;99.90;;;;;;5029552;28;20041;-75
2023/11/16 07:51:41;;;;;;;7.95;2.58;;;6.70;99.90;;;;;;5029688;28;20079;-75
2023/11/16 07:54:07;;;;;;;11.65;3.83;;;6.80;99.90;;;;;;5029248;28;20096;-75
2023/11/16 07:56:34;;;;;;;10.20;3.50;;;6.80;99.90;;;;;;5029108;28;20133;-76
2023/11/16 07:58:59;;;;;;;6.93;2.90;;;6.90;99.90;;;;;;5045959;28;20071;-75
2023/11/16 08:01:38;;;;;;;5.13;2.63;;;6.90;99.90;;;;;;5045968;28;20021;-75
2023/11/16 08:04:04;;;;;;;12.27;3.70;;;6.90;99.90;;;;;;5045681;28;20037;-76
2023/11/16 08:06:31;;;;;;;10.20;2.72;;;6.90;99.90;;;;;;5029102;28;20317;-76
2023/11/16 08:08:56;;;;;;;8.73;3.10;;;6.90;99.90;;;;;;5045503;28;20201;-76
2023/11/16 08:11:22;;;;;;;7.55;3.20;;;6.80;99.90;;;;;;5029152;28;20045;-75
2023/11/16 08:13:48;;;;;;;5.18;2.60;;;6.90;99.90;;;;;;5045615;28;20037;-75
2023/11/16 08:16:20;;;;;;;7.60;3.67;;;6.90;99.90;;;;;;5028830;28;20025;-75
2023/11/16 08:18:50;;;;;;;10.40;3.90;;;6.90;99.90;;;;;;5045386;28;20029;-76
2023/11/16 08:21:16;;;;;;;8.05;3.50;;;6.90;99.90;;;;;;5045319;28;20345;-75
2023/11/16 08:23:43;;;;;;;7.82;2.38;;;6.90;99.90;;;;;;5046413;28;20033;-75
2023/11/16 08:26:10;;;;;;;6.40;2.80;;;7.00;99.90;;;;;;5045354;28;20156;-75
2023/11/16 08:28:36;;;;;;;9.77;3.03;;;7.00;99.90;;;;;;5045149;28;20235;-75
2023/11/16 08:31:02;;;;;;;11.35;3.22;;;7.00;99.90;;;;;;5046039;28;20084;-77
2023/11/16 08:33:31;;;;;;;8.13;2.53;;;7.00;99.90;;;;;;5028515;28;20025;-77
2023/11/16 08:35:57;;;;;;;10.35;2.60;;;7.10;99.90;;;;;;5028865;28;20025;-76
2023/11/16 08:38:25;;;;;;;10.65;3.22;;;7.10;99.90;;;;;;5044687;28;20057;-76
2023/11/16 08:40:55;;;;;;;8.82;3.20;;;7.10;99.90;;;;;;5045822;28;20081;-76
2023/11/16 08:43:22;;;;;;;15.20;4.07;;;7.20;99.90;;;;;;5028357;28;20244;-76
2023/11/16 08:45:49;;;;;;;7.45;3.15;;;7.20;99.90;;;;;;5045662;28;20131;-76
2023/11/16 08:48:16;;;;;;;7.90;3.10;;;7.20;99.90;;;;;;5045630;28;20119;-78
2023/11/16 08:50:44;;;;;;;9.25;3.13;;;7.20;99.90;;;;;;5044586;28;20087;-75
2023/11/16 08:53:12;;;;;;;10.93;3.60;;;7.30;99.90;;;;;;5044552;28;20021;-76
2023/11/16 08:55:38;;;;;;;9.43;2.65;;;7.30;99.90;;;;;;5028646;28;20029;-77
2023/11/16 08:58:06;;;;;;;13.18;3.00;;;7.30;99.90;;;;;;5045732;28;20041;-77
2023/11/16 09:00:35;;;;;;;13.75;3.55;;;7.30;99.90;;;;;;5045433;28;20182;-75
2023/11/16 09:03:06;;;;;;;6.53;2.70;;;7.40;99.90;;;;;;5044472;28;20075;-75
2023/11/16 09:05:32;;;;;;;12.40;3.13;;;7.40;99.90;;;;;;5045134;28;20029;-75
2023/11/16 09:08:01;;;;;;;8.02;3.17;;;7.40;99.90;;;;;;5045077;28;20053;-75
2023/11/16 09:10:34;;;;;;;10.43;2.83;;;7.40;99.90;;;;;;5044664;28;20040;-76
2023/11/16 09:13:00;;;;;;;6.82;2.72;;;7.50;99.90;;;;;;5044349;28;20340;-76
2023/11/16 09:15:26;;;;;;;13.70;3.15;;;7.50;99.90;;;;;;5044306;28;20281;-76
2023/11/16 09:17:52;;;;;;;11.30;3.72;;;7.50;99.90;;;;;;5044545;28;20075;-76
2023/11/16 09:20:18;;;;;;;18.17;5.82;;;7.60;99.90;;;;;;5045061;28;20108;-76
2023/11/16 09:22:50;;;;;;;23.80;7.22;;;7.60;99.90;;;;;;5045039;28;20182;-76
2023/11/16 09:25:20;;;;;;;23.05;9.05;;;7.70;99.90;;;;;;5045317;28;20030;-76
2023/11/16 09:27:54;;;;;;;14.55;5.78;;;7.70;99.90;;;;;;5043966;28;20294;-76
2023/11/16 09:30:24;;;;;;;14.07;6.63;;;7.70;99.90;;;;;;5044080;28;20093;-77
2023/11/16 09:32:54;;;;;;;19.25;7.00;;;7.70;99.90;;;;;;5027749;28;20100;-78
2023/11/16 09:35:22;;;;;;;10.20;5.10;;;7.80;99.90;;;;;;5044127;28;20262;-75
2023/11/16 09:37:49;;;;;;;12.60;5.70;;;7.90;99.90;;;;;;5043758;28;20068;-77
2023/11/16 09:40:21;;;;;;;14.30;7.53;;;7.90;99.90;;;;;;5044132;28;20028;-76
2023/11/16 09:43:00;;;;;;;12.65;5.28;;;7.90;99.90;;;;;;5043987;28;20018;-76
2023/11/16 09:45:28;;;;;;;14.43;5.63;;;7.90;99.90;;;;;;5044061;28;20039;-76
2023/11/16 09:47:58;;;;;;;14.55;5.13;;;7.90;99.90;;;;;;5044833;28;20029;-76
2023/11/16 09:50:27;;;;;;;;;;;8.00;99.90;;;;;;5044324;28;20065;-76
2023/11/16 09:52:57;;;;;;;14.80;7.13;;;8.00;99.90;;;;;;5043757;28;19909;-77
2023/11/16 09:55:37;;;;;;;18.23;10.00;;;8.10;99.90;;;;;;5027263;28;20029;-77
2023/11/16 09:58:08;;;;;;;19.83;9.50;;;8.10;99.90;;;;;;5043636;28;20191;-77
2023/11/16 10:00:34;;;;;;;16.77;8.18;;;8.10;99.90;;;;;;5044361;28;20048;-77
2023/11/16 10:03:00;;;;;;;14.10;5.28;;;8.10;99.90;;;;;;5043487;28;20045;-77
2023/11/16 10:05:40;;;;;;;19.83;8.50;;;8.20;99.90;;;;;;5043692;28;20033;-76
2023/11/16 10:08:14;;;;;;;8.32;3.85;;;8.20;99.90;;;;;;5044909;28;20033;-77
2023/11/16 10:11:06;;;;;;;5.80;3.40;;;8.30;99.90;;;;;;5043412;28;20030;-76
2023/11/16 10:13:32;;;;;;;9.10;3.60;;;8.40;99.90;;;;;;5044618;28;20029;-77
2023/11/16 10:16:03;;;;;;;7.88;3.75;;;8.60;99.90;;;;;;5043273;28;20040;-77
2023/11/16 10:18:29;;;;;;;21.80;13.80;;;8.60;99.90;;;;;;5044364;28;20112;-76
2023/11/16 10:20:55;;;;;;;27.20;17.20;;;8.70;99.90;;;;;;5043682;28;20034;-76
2023/11/16 10:23:23;;;;;;;23.05;18.98;;;8.80;99.90;;;;;;5043655;28;20103;-76
2023/11/16 10:25:49;;;;;;;21.27;13.30;;;8.90;99.90;;;;;;5043715;28;20030;-76
2023/11/16 10:28:21;;;;;;;16.65;10.77;;;8.90;99.90;;;;;;5043640;28;20349;-77
2023/11/16 10:30:49;;;;;;;15.20;9.45;;;9.00;99.90;;;;;;5043569;28;20033;-76
2023/11/16 10:33:20;;;;;;;15.00;8.93;;;9.00;99.90;;;;;;5027270;28;20040;-76
2023/11/16 10:35:52;;;;;;;12.57;6.68;;;9.00;99.90;;;;;;5043623;28;20021;-76
2023/11/16 10:38:19;;;;;;;12.45;6.80;;;9.10;99.90;;;;;;5027680;28;20040;-76
2023/11/16 10:40:49;;;;;;;12.02;7.18;;;9.10;99.90;;;;;;5044573;28;20061;-78
2023/11/16 10:43:25;;;;;;;15.07;7.90;;;9.20;99.90;;;;;;5029423;28;20037;-77
2023/11/16 10:45:52;;;;;;;12.35;5.65;;;9.20;99.90;;;;;;5046890;28;20053;-77
2023/11/16 10:48:19;;;;;;;16.50;6.13;;;9.20;99.90;;;;;;5029816;28;20061;-77
2023/11/16 10:50:45;;;;;;;10.68;4.90;;;9.30;99.90;;;;;;5046783;28;20029;-76
2023/11/16 10:53:20;;;;;;;11.68;5.57;;;9.30;99.90;;;;;;5046843;28;20037;-78
2023/11/16 10:55:46;;;;;;;14.70;8.85;;;9.30;99.90;;;;;;5047724;28;20025;-77
2023/11/16 10:58:13;;;;;;;15.00;6.40;;;9.30;99.90;;;;;;5046454;28;20044;-78
2023/11/16 11:00:41;;;;;;;13.55;6.75;;;9.30;99.90;;;;;;5046310;28;20026;-78
2023/11/16 11:03:07;;;;;;;14.98;5.43;;;9.30;99.90;;;;;;5030192;28;20022;-77
2023/11/16 11:05:36;;;;;;;10.18;4.32;;;9.30;99.90;;;;;;5047540;28;20376;-78
2023/11/16 11:08:07;;;;;;;16.00;6.68;;;9.30;99.90;;;;;;5046784;28;20021;-77
2023/11/16 11:10:33;;;;;;;11.20;4.88;;;9.30;99.90;;;;;;5046763;28;20021;-77
2023/11/16 11:13:06;;;;;;;258.45;114.65;;;9.30;99.90;;;;;;5046500;28;20186;-77
2023/11/16 11:15:35;;;;;;;146.13;72.80;;;9.40;99.90;;;;;;5046682;28;20297;-77
2023/11/16 11:18:01;;;;;;;18.17;7.68;;;9.40;99.90;;;;;;5046158;28;20041;-77
2023/11/16 11:20:36;;;;;;;18.58;8.38;;;9.30;99.90;;;;;;5046972;28;20190;-77
2023/11/16 11:23:06;;;;;;;10.38;5.55;;;9.40;99.90;;;;;;5046497;28;20025;-77
2023/11/16 11:25:33;;;;;;;12.98;6.13;;;9.40;99.90;;;;;;5047277;28;20025;-78
2023/11/16 11:27:59;;;;;;;10.55;5.75;;;9.50;99.90;;;;;;5047402;28;20100;-77
2023/11/16 11:30:26;;;;;;;11.18;5.13;;;9.50;99.90;;;;;;5046232;28;20052;-78
2023/11/16 11:32:54;;;;;;;9.07;4.22;;;9.60;99.90;;;;;;5046263;28;20233;-78
2023/11/16 11:35:21;;;;;;;11.27;3.72;;;9.60;99.90;;;;;;5046113;28;20028;-78
2023/11/16 11:37:47;;;;;;;12.32;3.97;;;9.50;99.90;;;;;;5029547;28;20029;-78
2023/11/16 11:40:14;;;;;;;9.43;4.40;;;9.50;99.90;;;;;;5046541;28;20041;-78
2023/11/16 11:42:44;;;;;;;12.55;4.15;;;9.40;99.90;;;;;;5045384;28;20313;-79
2023/11/16 11:45:12;;;;;;;9.40;4.00;;;9.40;99.90;;;;;;5046957;28;20271;-79
2023/11/16 11:47:39;;;;;;;11.25;3.80;;;9.30;99.90;;;;;;5046036;28;20188;-78
2023/11/16 11:50:07;;;;;;;15.75;4.95;;;9.40;99.90;;;;;;5047214;28;20206;-78
2023/11/16 11:52:33;;;;;;;12.65;6.15;;;9.40;99.90;;;;;;5029767;28;20083;-77
2023/11/16 11:54:58;;;;;;;16.52;6.63;;;9.40;99.90;;;;;;5028949;28;20096;-80
2023/11/16 11:57:24;;;;;;;25.63;9.35;;;9.40;99.90;;;;;;5045390;28;20186;-77
2023/11/16 11:59:50;;;;;;;19.02;11.48;;;9.40;99.90;;;;;;5046912;28;20051;-77
2023/11/16 12:02:17;;;;;;;8.07;3.47;;;9.40;99.90;;;;;;5045464;28;20029;-77
2023/11/16 12:04:43;;;;;;;11.10;4.38;;;9.30;99.90;;;;;;5029090;28;20159;-77
2023/11/16 12:07:10;;;;;;;12.15;3.40;;;9.40;99.90;;;;;;5045660;28;20106;-77
2023/11/16 12:09:44;;;;;;;13.52;4.68;;;9.30;99.90;;;;;;5046041;28;20029;-79
2023/11/16 12:12:10;;;;;;;12.45;3.78;;;9.30;99.90;;;;;;5044923;28;20021;-78
2023/11/16 12:14:51;;;;;;;11.18;4.10;;;9.20;99.90;;;;;;5045592;28;20033;-77
2023/11/16 12:17:18;;;;;;;11.90;3.65;;;9.20;99.90;;;;;;5044749;28;20021;-77
2023/11/16 12:19:47;;;;;;;9.82;3.83;;;9.30;99.90;;;;;;5045805;28;20033;-77
2023/11/16 12:22:14;;;;;;;42.00;35.10;;;9.40;99.90;;;;;;5045899;28;20101;-75
2023/11/16 12:24:40;;;;;;;22.40;15.50;;;9.60;99.90;;;;;;5046076;28;20093;-78
2023/11/16 12:27:09;;;;;;;178.63;163.82;;;9.70;99.90;;;;;;5028264;28;20087;-79
2023/11/16 12:29:35;;;;;;;26.42;17.73;;;9.80;99.90;;;;;;5045295;28;20024;-79
2023/11/16 12:32:01;;;;;;;17.40;8.43;;;10.00;99.90;;;;;;5027885;28;20338;-78
2023/11/16 12:34:27;;;;;;;8.25;5.47;;;10.20;99.90;;;;;;5028264;28;20051;-77
2023/11/16 12:36:58;;;;;;;12.15;5.13;;;10.40;99.90;;;;;;5044736;28;20029;-80
2023/11/16 12:39:25;;;;;;;11.80;4.00;;;10.40;99.90;;;;;;5044835;28;20017;-77
2023/11/16 12:41:55;;;;;;;12.43;4.53;;;10.40;99.90;;;;;;5045577;28;20044;-77
2023/11/16 12:44:25;;;;;;;9.98;3.63;;;10.40;99.90;;;;;;5044685;28;20210;-78
2023/11/16 12:46:51;;;;;;;9.38;3.60;;;10.40;99.90;;;;;;5028619;28;20031;-78
2023/11/16 12:49:17;;;;;;;10.30;3.70;;;10.50;99.90;;;;;;5027788;28;20049;-79
2023/11/16 12:51:43;;;;;;;11.48;3.83;;;10.50;99.90;;;;;;5044566;28;20033;-78
2023/11/16 12:54:09;;;;;;;7.68;3.25;;;10.50;99.90;;;;;;5044316;28;20221;-78